Time;durP1;ratioP1;P1;durP2;ratioP2;P2;SDS_P1;SDS_P2;PMS_P1;PMS_P2;Temp;Humidity;BMP_temperature;BMP_pressure;BME280_temperature;BME280_humidity;BME280_pressure;Samples;Min_cycle;Max_cycle;Signal;HPM_P1;HPM_P2
2023/06/02 00:00:41;;;;;;;8.27;2.30;;;12.50;99.70;;;;;;5033259;28;20042;-55
2023/06/02 00:03:08;;;;;;;7.97;2.40;;;12.60;99.70;;;;;;5033548;28;20045;-55
2023/06/02 00:05:35;;;;;;;9.50;2.33;;;12.60;99.70;;;;;;5033338;28;20040;-56
2023/06/02 00:08:02;;;;;;;4.57;1.92;;;12.60;99.60;;;;;;5033388;28;20045;-56
2023/06/02 00:10:29;;;;;;;6.53;1.92;;;12.60;99.50;;;;;;5036412;28;20518;-53
2023/06/02 00:12:56;;;;;;;9.90;1.85;;;12.70;99.50;;;;;;5035961;28;20073;-56
2023/06/02 00:15:23;;;;;;;5.20;1.90;;;12.70;99.60;;;;;;5037455;28;20504;-55
2023/06/02 00:17:50;;;;;;;6.25;2.92;;;12.60;99.70;;;;;;5037422;28;20045;-53
2023/06/02 00:20:17;;;;;;;4.07;1.70;;;12.60;99.70;;;;;;5037329;28;20041;-54
2023/06/02 00:22:46;;;;;;;7.25;1.90;;;12.70;99.70;;;;;;5037032;28;20412;-57
2023/06/02 00:25:13;;;;;;;4.32;1.77;;;12.60;99.80;;;;;;5037223;28;20069;-50
2023/06/02 00:27:40;;;;;;;4.57;1.70;;;12.60;99.90;;;;;;5036180;28;20045;-54
2023/06/02 00:30:07;;;;;;;6.35;1.88;;;12.50;99.90;;;;;;5037623;28;20041;-56
2023/06/02 00:32:34;;;;;;;5.72;1.80;;;12.50;99.90;;;;;;5037133;28;20129;-54
2023/06/02 00:35:01;;;;;;;4.85;1.38;;;12.50;99.90;;;;;;5037641;28;20069;-55
2023/06/02 00:37:28;;;;;;;2.53;1.50;;;12.50;99.90;;;;;;5035643;28;20107;-58
2023/06/02 00:39:55;;;;;;;4.07;1.30;;;12.50;99.90;;;;;;5037349;28;20041;-58
2023/06/02 00:42:22;;;;;;;3.53;1.25;;;12.50;99.90;;;;;;5035530;28;20038;-57
2023/06/02 00:44:48;;;;;;;2.63;1.40;;;12.50;99.70;;;;;;5036907;28;20581;-57
2023/06/02 00:47:15;;;;;;;3.45;1.20;;;12.50;99.70;;;;;;5035844;28;20051;-56
2023/06/02 00:49:42;;;;;;;2.85;1.10;;;12.50;99.70;;;;;;5036821;28;20045;-55
2023/06/02 00:52:09;;;;;;;3.25;1.13;;;12.40;99.90;;;;;;5036874;28;20132;-55
2023/06/02 00:54:36;;;;;;;4.75;1.30;;;12.50;99.90;;;;;;5035255;28;20064;-54
2023/06/02 00:57:02;;;;;;;3.75;1.30;;;12.40;99.70;;;;;;5036466;28;20390;-56
2023/06/02 00:59:29;;;;;;;3.15;1.15;;;12.50;99.80;;;;;;5036746;28;20603;-57
2023/06/02 01:01:56;;;;;;;3.63;1.20;;;12.50;99.70;;;;;;5036405;28;20088;-58
2023/06/02 01:04:23;;;;;;;3.45;1.20;;;12.50;99.90;;;;;;5035014;28;20408;-53
2023/06/02 01:06:50;;;;;;;4.47;1.30;;;12.50;99.70;;;;;;5035438;28;20061;-54
2023/06/02 01:09:16;;;;;;;2.47;1.00;;;12.50;99.50;;;;;;5036733;28;20457;-55
2023/06/02 01:11:43;;;;;;;4.03;1.17;;;12.50;99.50;;;;;;5036639;28;20056;-57
2023/06/02 01:14:10;;;;;;;4.88;1.17;;;12.40;99.70;;;;;;5036558;28;20045;-57
2023/06/02 01:16:38;;;;;;;4.95;1.38;;;12.30;99.90;;;;;;5035161;28;20046;-57
2023/06/02 01:19:06;;;;;;;3.38;1.10;;;12.40;99.80;;;;;;5036208;28;20453;-57
2023/06/02 01:21:34;;;;;;;3.83;1.10;;;12.30;99.60;;;;;;5036055;28;20038;-57
2023/06/02 01:24:01;;;;;;;3.80;0.90;;;12.30;99.80;;;;;;5035889;28;20124;-55
2023/06/02 01:26:34;;;;;;;5.15;1.20;;;12.30;99.40;;;;;;5035174;28;20527;-57
2023/06/02 01:29:01;;;;;;;2.95;1.00;;;12.30;99.30;;;;;;5036605;28;20045;-54
2023/06/02 01:31:28;;;;;;;3.92;1.00;;;12.30;99.10;;;;;;5036369;28;20069;-56
2023/06/02 01:33:55;;;;;;;5.50;1.05;;;12.20;99.10;;;;;;5036268;28;20041;-57
2023/06/02 01:36:21;;;;;;;4.43;1.00;;;12.20;99.10;;;;;;5034965;28;20140;-53
2023/06/02 01:38:48;;;;;;;4.30;0.85;;;12.10;99.10;;;;;;5036120;28;20049;-55
2023/06/02 01:41:15;;;;;;;3.88;1.00;;;12.20;99.10;;;;;;5034716;28;20156;-57
2023/06/02 01:43:42;;;;;;;5.00;1.20;;;12.20;99.10;;;;;;5035049;28;20431;-57
2023/06/02 01:46:09;;;;;;;4.95;1.08;;;12.20;99.30;;;;;;5034563;28;20137;-56
2023/06/02 01:48:36;;;;;;;2.97;1.05;;;12.10;99.30;;;;;;5036117;28;20465;-57
2023/06/02 01:51:03;;;;;;;4.57;1.20;;;12.10;99.20;;;;;;5035745;28;20366;-56
2023/06/02 01:53:29;;;;;;;4.60;1.10;;;12.20;99.30;;;;;;5035445;28;20480;-55
2023/06/02 01:55:56;;;;;;;4.78;1.33;;;12.20;99.20;;;;;;5034522;28;20436;-55
2023/06/02 01:58:23;;;;;;;2.95;1.15;;;12.20;99.30;;;;;;5035970;28;20128;-54
2023/06/02 02:00:50;;;;;;;6.93;1.52;;;12.20;99.30;;;;;;5034123;28;20484;-52
2023/06/02 02:03:17;;;;;;;5.70;1.40;;;12.30;99.30;;;;;;5035613;28;20042;-57
2023/06/02 02:05:44;;;;;;;4.30;1.23;;;12.20;99.20;;;;;;5035675;28;20164;-53
2023/06/02 02:08:12;;;;;;;9.50;1.45;;;12.20;99.40;;;;;;5035921;28;20473;-55
2023/06/02 02:10:38;;;;;;;9.02;1.55;;;12.10;99.50;;;;;;5035786;28;20080;-56
2023/06/02 02:13:05;;;;;;;4.40;1.30;;;12.10;99.60;;;;;;5035671;28;20055;-57
2023/06/02 02:15:32;;;;;;;6.00;1.45;;;12.10;99.60;;;;;;5035488;28;20045;-53
2023/06/02 02:17:59;;;;;;;4.65;1.55;;;12.00;99.50;;;;;;5035658;28;20057;-53
2023/06/02 02:20:25;;;;;;;3.33;1.23;;;12.00;99.50;;;;;;5034026;28;20037;-54
2023/06/02 02:22:52;;;;;;;10.80;1.63;;;12.00;99.40;;;;;;5034178;28;20045;-53
2023/06/02 02:25:19;;;;;;;3.97;1.40;;;11.90;99.40;;;;;;5035205;28;20053;-53
2023/06/02 02:27:46;;;;;;;7.75;1.23;;;12.00;99.40;;;;;;5034019;28;20045;-54
2023/06/02 02:30:14;;;;;;;4.78;1.55;;;12.00;99.30;;;;;;5035018;28;20033;-56
2023/06/02 02:32:41;;;;;;;8.15;2.13;;;11.90;99.20;;;;;;5032967;28;20082;-55
2023/06/02 02:35:08;;;;;;;7.40;1.42;;;12.00;99.20;;;;;;5035134;28;20045;-55
2023/06/02 02:37:36;;;;;;;8.80;1.67;;;11.90;98.90;;;;;;5033637;28;20049;-57
2023/06/02 02:40:13;;;;;;;7.93;1.55;;;11.90;99.10;;;;;;5033366;28;20133;-57
2023/06/02 02:42:41;;;;;;;3.33;1.42;;;11.90;99.00;;;;;;5033207;28;20065;-55
2023/06/02 02:45:08;;;;;;;5.50;1.70;;;11.90;99.00;;;;;;5034492;28;20038;-56
2023/06/02 02:47:35;;;;;;;5.47;1.67;;;11.90;98.80;;;;;;5033686;28;20075;-55
2023/06/02 02:50:02;;;;;;;7.65;1.67;;;11.90;99.00;;;;;;5034950;28;20547;-57
2023/06/02 02:52:29;;;;;;;6.93;1.70;;;11.90;98.90;;;;;;5033195;28;20049;-55
2023/06/02 02:54:57;;;;;;;8.68;1.67;;;11.90;98.90;;;;;;5034848;28;20068;-55
2023/06/02 02:57:24;;;;;;;8.65;1.77;;;11.80;98.90;;;;;;5033816;28;20111;-53
2023/06/02 02:59:51;;;;;;;5.85;1.77;;;11.80;98.90;;;;;;5034346;28;20049;-51
2023/06/02 03:02:18;;;;;;;7.47;1.70;;;11.80;98.60;;;;;;5033251;28;20396;-53
2023/06/02 03:04:45;;;;;;;7.35;1.67;;;11.80;98.70;;;;;;5034731;28;20049;-50
2023/06/02 03:07:13;;;;;;;7.70;1.90;;;11.80;98.80;;;;;;5033023;28;20049;-54
2023/06/02 03:09:41;;;;;;;9.02;2.13;;;11.80;98.70;;;;;;5032768;28;20045;-54
2023/06/02 03:12:08;;;;;;;12.52;1.88;;;11.80;98.80;;;;;;5016625;28;20038;-51
2023/06/02 03:14:36;;;;;;;8.93;1.70;;;11.80;98.80;;;;;;5033174;28;20045;-51
2023/06/02 03:17:05;;;;;;;9.43;2.05;;;11.70;98.90;;;;;;5033277;28;20037;-51
2023/06/02 03:19:34;;;;;;;8.82;2.20;;;11.70;98.70;;;;;;5033122;28;20057;-53
2023/06/02 03:22:02;;;;;;;9.07;2.55;;;11.60;98.60;;;;;;5016715;28;20034;-53
2023/06/02 03:24:31;;;;;;;12.05;2.03;;;11.60;98.70;;;;;;5032612;28;20049;-51
2023/06/02 03:27:03;;;;;;;8.35;2.40;;;11.60;98.70;;;;;;5032661;28;20503;-51
2023/06/02 03:29:30;;;;;;;8.55;2.42;;;11.60;98.50;;;;;;5034065;28;20096;-50
2023/06/02 03:31:57;;;;;;;7.95;2.90;;;11.60;98.40;;;;;;5033070;28;20052;-52
2023/06/02 03:34:28;;;;;;;5.45;2.10;;;11.60;98.50;;;;;;5032712;28;20419;-51
2023/06/02 03:37:01;;;;;;;10.63;2.78;;;11.50;98.20;;;;;;5032644;28;20165;-52
2023/06/02 03:39:29;;;;;;;9.35;2.60;;;11.40;98.20;;;;;;5032466;28;20064;-52
2023/06/02 03:41:55;;;;;;;12.10;3.22;;;11.40;98.40;;;;;;5034178;28;20034;-49
2023/06/02 03:44:22;;;;;;;15.18;2.50;;;11.40;98.40;;;;;;5032777;28;20083;-53
2023/06/02 03:46:49;;;;;;;9.93;2.50;;;11.30;98.30;;;;;;5032402;28;20433;-55
2023/06/02 03:49:17;;;;;;;9.98;2.50;;;11.30;98.30;;;;;;5032723;28;20460;-53
2023/06/02 03:51:46;;;;;;;11.48;2.72;;;11.30;98.40;;;;;;5032658;28;20052;-53
2023/06/02 03:54:13;;;;;;;9.75;2.30;;;11.30;98.40;;;;;;5032672;28;20394;-55
2023/06/02 03:56:41;;;;;;;10.85;2.50;;;11.30;98.50;;;;;;5032423;28;20042;-56
2023/06/02 03:59:08;;;;;;;7.25;2.83;;;11.20;98.60;;;;;;5033474;28;20068;-52
2023/06/02 04:01:35;;;;;;;11.88;2.88;;;11.30;98.70;;;;;;5033989;28;20037;-53
2023/06/02 04:04:04;;;;;;;10.52;2.47;;;11.30;98.50;;;;;;5033614;28;20056;-54
2023/06/02 04:06:31;;;;;;;8.88;2.33;;;11.30;98.50;;;;;;5032006;28;20037;-50
2023/06/02 04:08:58;;;;;;;10.98;2.60;;;11.30;98.50;;;;;;5032363;28;20052;-49
2023/06/02 04:11:26;;;;;;;11.02;2.40;;;11.40;98.40;;;;;;5032451;28;20040;-53
2023/06/02 04:13:53;;;;;;;8.73;2.88;;;11.40;98.50;;;;;;5032699;28;20128;-50
2023/06/02 04:16:21;;;;;;;10.30;2.22;;;11.40;98.40;;;;;;5032438;28;20041;-50
2023/06/02 04:18:49;;;;;;;9.13;2.55;;;11.40;98.50;;;;;;5032344;28;20042;-50
2023/06/02 04:21:16;;;;;;;10.43;2.80;;;11.40;98.40;;;;;;5033495;28;20436;-51
2023/06/02 04:23:44;;;;;;;6.47;2.50;;;11.30;98.50;;;;;;5032142;28;20045;-51
2023/06/02 04:26:12;;;;;;;8.20;2.67;;;11.40;98.50;;;;;;5032596;28;20073;-50
2023/06/02 04:28:40;;;;;;;10.70;2.60;;;11.40;98.60;;;;;;5032155;28;20050;-50
2023/06/02 04:31:09;;;;;;;11.73;2.80;;;11.40;98.50;;;;;;5032068;28;20072;-49
2023/06/02 04:33:39;;;;;;;9.48;2.50;;;11.40;98.70;;;;;;5032231;28;20053;-50
2023/06/02 04:36:10;;;;;;;10.52;2.70;;;11.40;98.60;;;;;;5031868;28;20053;-48
2023/06/02 04:38:38;;;;;;;9.93;2.97;;;11.40;98.60;;;;;;5031972;28;20112;-50
2023/06/02 04:41:06;;;;;;;17.15;2.70;;;11.30;98.60;;;;;;5032023;28;20100;-49
2023/06/02 04:43:34;;;;;;;10.40;2.60;;;11.30;98.70;;;;;;5032188;28;20073;-52
2023/06/02 04:46:06;;;;;;;8.50;2.83;;;11.30;98.60;;;;;;5032152;28;20037;-53
2023/06/02 04:48:34;;;;;;;10.30;2.80;;;11.30;98.60;;;;;;5032103;28;20568;-53
2023/06/02 04:51:02;;;;;;;10.65;2.78;;;11.30;98.80;;;;;;5031893;28;20579;-57
2023/06/02 04:53:29;;;;;;;9.10;2.85;;;11.30;98.80;;;;;;5032505;28;20050;-54
2023/06/02 04:55:57;;;;;;;9.57;2.50;;;11.40;98.80;;;;;;5033958;28;20041;-56
2023/06/02 04:58:25;;;;;;;13.48;2.70;;;11.40;98.80;;;;;;5037003;28;20069;-57
2023/06/02 05:00:52;;;;;;;8.88;2.35;;;11.40;98.60;;;;;;5035810;28;20041;-57
2023/06/02 05:03:19;;;;;;;8.05;2.38;;;11.40;98.60;;;;;;5035666;28;20049;-57
2023/06/02 05:05:46;;;;;;;6.75;2.83;;;11.40;98.60;;;;;;5035819;28;20054;-55
2023/06/02 05:08:13;;;;;;;12.32;2.42;;;11.30;98.60;;;;;;5035264;28;20052;-58
2023/06/02 05:10:40;;;;;;;11.57;2.80;;;11.40;98.60;;;;;;5035050;28;20042;-54
2023/06/02 05:13:07;;;;;;;9.13;2.53;;;11.40;98.60;;;;;;5036279;28;20113;-54
2023/06/02 05:15:35;;;;;;;9.02;2.80;;;11.30;98.30;;;;;;5035214;28;20103;-54
2023/06/02 05:18:03;;;;;;;10.60;2.67;;;11.30;98.50;;;;;;5034719;28;20064;-57
2023/06/02 05:20:30;;;;;;;8.95;2.90;;;11.20;98.60;;;;;;5034959;28;20038;-56
2023/06/02 05:22:56;;;;;;;11.63;3.30;;;11.20;98.50;;;;;;5036071;28;20046;-55
2023/06/02 05:25:23;;;;;;;8.95;3.00;;;11.20;98.30;;;;;;5034789;28;20049;-52
2023/06/02 05:27:50;;;;;;;11.38;2.78;;;11.20;98.30;;;;;;5036150;28;20049;-51
2023/06/02 05:30:18;;;;;;;13.77;2.55;;;11.30;98.20;;;;;;5035236;28;20041;-55
2023/06/02 05:32:45;;;;;;;10.27;2.75;;;11.20;98.20;;;;;;5034914;28;20041;-52
2023/06/02 05:35:13;;;;;;;8.63;2.60;;;11.30;98.30;;;;;;5035997;28;20400;-52
2023/06/02 05:37:40;;;;;;;11.85;2.60;;;11.30;98.10;;;;;;5036163;28;20419;-52
2023/06/02 05:40:08;;;;;;;10.05;2.60;;;11.30;98.00;;;;;;5035158;28;20042;-52
2023/06/02 05:42:35;;;;;;;8.13;2.63;;;11.40;97.70;;;;;;5034968;28;20129;-52
2023/06/02 05:45:05;;;;;;;13.40;3.05;;;11.30;97.50;;;;;;5036305;28;20037;-52
2023/06/02 05:47:34;;;;;;;10.18;2.47;;;11.30;97.60;;;;;;5034538;28;20041;-51
2023/06/02 05:50:02;;;;;;;6.95;2.50;;;11.30;97.60;;;;;;5034770;28;20041;-53
2023/06/02 05:52:31;;;;;;;10.57;2.30;;;11.30;97.70;;;;;;5034786;28;20504;-56
2023/06/02 05:54:58;;;;;;;10.98;2.75;;;11.40;97.60;;;;;;5034501;28;20160;-57
2023/06/02 05:57:25;;;;;;;11.05;2.40;;;11.40;97.80;;;;;;5034336;28;20443;-56
2023/06/02 05:59:52;;;;;;;9.05;2.80;;;11.40;97.70;;;;;;5034284;28;20041;-52
2023/06/02 06:02:19;;;;;;;9.50;2.55;;;11.40;97.90;;;;;;5035805;28;20033;-55
2023/06/02 06:04:46;;;;;;;13.00;2.75;;;11.40;97.80;;;;;;5034478;28;20137;-55
2023/06/02 06:07:13;;;;;;;10.60;2.65;;;11.40;97.90;;;;;;5033343;28;20065;-55
2023/06/02 06:09:40;;;;;;;11.82;2.80;;;11.50;98.00;;;;;;5034480;28;20041;-54
2023/06/02 06:12:08;;;;;;;14.48;3.22;;;11.50;98.00;;;;;;5034264;28;20508;-52
2023/06/02 06:14:36;;;;;;;9.57;2.60;;;11.50;97.70;;;;;;5034196;28;20037;-53
2023/06/02 06:17:02;;;;;;;7.65;2.70;;;11.50;97.70;;;;;;5033844;28;20049;-54
2023/06/02 06:19:29;;;;;;;12.52;3.08;;;11.60;97.70;;;;;;5035569;28;20064;-51
2023/06/02 06:21:56;;;;;;;9.32;3.70;;;11.60;97.60;;;;;;5034041;28;20152;-53
2023/06/02 06:24:24;;;;;;;16.58;3.85;;;11.50;97.70;;;;;;5034115;28;20049;-53
2023/06/02 06:26:51;;;;;;;7.32;2.55;;;11.60;97.80;;;;;;5034194;28;20076;-51
2023/06/02 06:29:18;;;;;;;11.50;2.97;;;11.60;97.70;;;;;;5035357;28;20049;-54
2023/06/02 06:31:47;;;;;;;9.90;2.83;;;11.70;97.70;;;;;;5034063;28;20053;-55
2023/06/02 06:34:14;;;;;;;9.20;2.70;;;11.50;97.40;;;;;;5035428;28;20096;-55
2023/06/02 06:36:41;;;;;;;9.85;3.03;;;11.50;97.40;;;;;;5034986;28;20041;-55
2023/06/02 06:39:07;;;;;;;11.05;3.20;;;11.50;97.70;;;;;;5034907;28;20041;-53
2023/06/02 06:41:40;;;;;;;13.27;3.03;;;11.60;97.50;;;;;;5033911;28;20107;-57
2023/06/02 06:44:11;;;;;;;12.90;3.17;;;11.60;97.20;;;;;;5033648;28;20046;-55
2023/06/02 06:46:38;;;;;;;10.00;2.47;;;11.60;97.10;;;;;;5033054;28;20504;-54
2023/06/02 06:49:05;;;;;;;8.43;3.00;;;11.70;97.20;;;;;;5031706;28;20493;-53
2023/06/02 06:51:32;;;;;;;8.80;2.80;;;11.70;97.00;;;;;;5032663;28;20475;-54
2023/06/02 06:54:00;;;;;;;9.90;2.97;;;11.80;97.30;;;;;;5032868;28;20065;-52
2023/06/02 06:56:26;;;;;;;9.25;3.15;;;11.80;96.90;;;;;;5033956;28;20051;-52
2023/06/02 06:58:53;;;;;;;10.18;2.75;;;11.90;97.00;;;;;;5034287;28;20057;-56
2023/06/02 07:01:20;;;;;;;12.75;3.17;;;12.00;97.00;;;;;;5034418;28;20412;-52
2023/06/02 07:03:47;;;;;;;8.73;3.15;;;12.00;96.80;;;;;;5034090;28;20059;-56
2023/06/02 07:06:14;;;;;;;8.75;2.85;;;12.10;96.60;;;;;;5034120;28;20445;-56
2023/06/02 07:08:41;;;;;;;8.38;2.30;;;12.10;96.60;;;;;;5034274;28;20041;-54
2023/06/02 07:11:08;;;;;;;10.07;2.83;;;12.00;96.50;;;;;;5034105;28;20033;-56
2023/06/02 07:13:35;;;;;;;11.13;2.85;;;12.10;96.80;;;;;;5034177;28;20041;-56
2023/06/02 07:16:01;;;;;;;12.32;3.38;;;12.00;96.70;;;;;;5033655;28;20063;-56
2023/06/02 07:18:28;;;;;;;10.20;3.00;;;12.10;97.00;;;;;;5032168;28;20425;-57
2023/06/02 07:20:55;;;;;;;10.55;2.97;;;12.20;96.90;;;;;;5033789;28;20049;-54
2023/06/02 07:23:22;;;;;;;12.07;3.70;;;12.20;96.40;;;;;;5033479;28;20053;-52
2023/06/02 07:25:49;;;;;;;11.90;2.83;;;12.20;96.70;;;;;;5033497;28;20050;-56
2023/06/02 07:28:16;;;;;;;9.00;3.05;;;12.20;96.50;;;;;;5032494;28;20041;-57
2023/06/02 07:30:57;;;;;;;8.50;2.58;;;12.20;96.40;;;;;;5033515;28;20127;-55
2023/06/02 07:33:35;;;;;;;7.50;2.20;;;12.20;96.20;;;;;;5033610;28;20037;-54
2023/06/02 07:36:02;;;;;;;12.20;2.47;;;12.20;96.30;;;;;;5033007;28;20076;-57
2023/06/02 07:38:29;;;;;;;8.07;2.38;;;12.30;96.40;;;;;;5031026;28;20404;-57
2023/06/02 07:40:56;;;;;;;10.07;2.72;;;12.40;96.20;;;;;;5033730;28;20042;-55
2023/06/02 07:43:22;;;;;;;7.20;2.67;;;12.50;96.10;;;;;;5033578;28;20049;-56
2023/06/02 07:45:49;;;;;;;10.95;2.38;;;12.60;96.00;;;;;;5033321;28;20564;-54
2023/06/02 07:48:16;;;;;;;10.52;2.70;;;12.60;96.00;;;;;;5033318;28;20455;-56
2023/06/02 07:50:43;;;;;;;9.50;2.47;;;12.70;96.00;;;;;;5033557;28;20116;-52
2023/06/02 07:53:10;;;;;;;9.18;2.47;;;12.80;95.90;;;;;;5031834;28;20454;-55
2023/06/02 07:55:37;;;;;;;13.07;2.45;;;12.90;95.50;;;;;;5032977;28;20095;-56
2023/06/02 07:58:03;;;;;;;8.15;2.50;;;13.00;95.70;;;;;;5032586;28;20550;-55
2023/06/02 08:00:30;;;;;;;9.43;2.40;;;13.10;95.60;;;;;;5034053;28;20398;-56
2023/06/02 08:02:57;;;;;;;7.97;2.33;;;13.20;95.70;;;;;;5033821;28;20041;-56
2023/06/02 08:05:24;;;;;;;9.68;2.50;;;13.20;95.30;;;;;;5033577;28;20037;-56
2023/06/02 08:07:51;;;;;;;8.95;2.20;;;13.10;95.40;;;;;;5033794;28;20045;-53
2023/06/02 08:10:18;;;;;;;10.60;3.10;;;13.10;95.60;;;;;;5032543;28;20069;-55
2023/06/02 08:12:45;;;;;;;9.48;2.13;;;13.10;95.50;;;;;;5032399;28;20096;-55
2023/06/02 08:15:12;;;;;;;6.93;1.95;;;13.10;95.50;;;;;;5033438;28;20056;-55
2023/06/02 08:17:39;;;;;;;12.50;2.75;;;13.10;95.30;;;;;;5033568;28;20431;-57
2023/06/02 08:20:07;;;;;;;8.25;2.42;;;13.20;95.50;;;;;;5032333;28;20374;-57
2023/06/02 08:22:36;;;;;;;10.60;2.08;;;13.20;94.80;;;;;;5032863;28;20037;-49
2023/06/02 08:25:04;;;;;;;7.00;1.90;;;13.20;94.90;;;;;;5032227;28;20133;-55
2023/06/02 08:27:31;;;;;;;9.30;1.88;;;13.30;94.40;;;;;;5032995;28;20550;-53
2023/06/02 08:29:58;;;;;;;10.60;1.88;;;13.40;94.70;;;;;;5031716;28;20038;-57
2023/06/02 08:32:25;;;;;;;8.07;2.00;;;13.40;94.20;;;;;;5033700;28;20045;-54
2023/06/02 08:34:55;;;;;;;9.13;1.92;;;13.30;94.40;;;;;;5035752;28;20045;-53
2023/06/02 08:37:21;;;;;;;8.75;2.28;;;13.30;94.50;;;;;;5036901;28;20053;-57
2023/06/02 08:39:48;;;;;;;10.65;2.20;;;13.30;94.40;;;;;;5036852;28;20042;-52
2023/06/02 08:42:15;;;;;;;6.97;1.98;;;13.50;94.50;;;;;;5035824;28;20038;-53
2023/06/02 08:44:42;;;;;;;10.32;2.28;;;13.50;94.00;;;;;;5036709;28;20037;-52
2023/06/02 08:47:11;;;;;;;7.70;2.20;;;13.70;94.30;;;;;;5036825;28;20040;-53
2023/06/02 08:49:38;;;;;;;10.15;1.85;;;13.60;94.60;;;;;;5032161;28;20036;-55
2023/06/02 08:52:04;;;;;;;8.43;2.28;;;13.50;94.30;;;;;;5036366;28;20406;-54
2023/06/02 08:54:31;;;;;;;8.70;2.20;;;13.60;94.10;;;;;;5036689;28;20042;-52
2023/06/02 08:56:59;;;;;;;10.20;2.00;;;13.70;94.10;;;;;;5035058;28;20547;-53
2023/06/02 08:59:25;;;;;;;10.38;1.98;;;13.70;94.30;;;;;;5035377;28;20116;-52
2023/06/02 09:01:52;;;;;;;6.90;1.90;;;13.90;94.20;;;;;;5036426;28;20511;-54
2023/06/02 09:04:19;;;;;;;7.78;1.98;;;13.90;93.70;;;;;;5036064;28;20044;-53
2023/06/02 09:06:49;;;;;;;8.77;2.45;;;14.10;93.80;;;;;;5036051;28;20049;-51
2023/06/02 09:09:16;;;;;;;8.85;1.50;;;14.20;93.90;;;;;;5036367;28;20041;-53
2023/06/02 09:11:42;;;;;;;8.95;2.40;;;14.30;93.80;;;;;;5036188;28;20453;-53
2023/06/02 09:14:09;;;;;;;7.45;1.85;;;14.50;93.60;;;;;;5036089;28;20503;-54
2023/06/02 09:16:37;;;;;;;8.07;2.08;;;14.60;93.10;;;;;;5036044;28;20080;-57
2023/06/02 09:19:04;;;;;;;8.82;1.92;;;14.40;93.00;;;;;;5036116;28;20091;-54
2023/06/02 09:21:34;;;;;;;10.60;2.30;;;14.50;93.00;;;;;;5034745;28;20052;-57
2023/06/02 09:24:00;;;;;;;8.98;2.60;;;14.70;93.60;;;;;;5035812;28;20075;-52
2023/06/02 09:26:39;;;;;;;6.80;2.45;;;14.80;93.30;;;;;;5035990;28;20045;-53
2023/06/02 09:29:06;;;;;;;7.70;2.22;;;14.90;93.40;;;;;;5035938;28;20436;-52
2023/06/02 09:31:33;;;;;;;8.75;2.00;;;14.90;93.30;;;;;;5036048;28;20408;-56
2023/06/02 09:34:00;;;;;;;8.32;2.20;;;15.00;92.80;;;;;;5036199;28;20045;-54
2023/06/02 09:36:29;;;;;;;10.23;2.28;;;15.00;92.70;;;;;;5035846;28;20057;-55
2023/06/02 09:38:56;;;;;;;8.57;2.08;;;15.10;92.80;;;;;;5018242;28;20049;-53
2023/06/02 09:41:28;;;;;;;11.20;2.58;;;15.20;92.60;;;;;;5034504;28;20166;-55
2023/06/02 09:43:55;;;;;;;9.60;2.22;;;15.30;92.80;;;;;;5034104;28;20073;-50
2023/06/02 09:46:22;;;;;;;9.98;2.70;;;15.50;92.40;;;;;;5035949;28;20053;-52
2023/06/02 09:48:49;;;;;;;9.43;2.65;;;15.60;92.00;;;;;;5035914;28;20065;-48
2023/06/02 09:51:16;;;;;;;10.90;2.38;;;15.60;92.60;;;;;;5036234;28;20435;-51
2023/06/02 09:53:42;;;;;;;12.98;2.50;;;15.70;92.10;;;;;;5036195;28;20053;-53
2023/06/02 09:56:09;;;;;;;11.85;2.28;;;15.80;92.20;;;;;;5035401;28;20042;-51
2023/06/02 09:58:36;;;;;;;9.55;2.47;;;15.50;91.90;;;;;;5034566;28;20038;-53
2023/06/02 10:01:03;;;;;;;11.32;2.42;;;15.50;91.90;;;;;;5034366;28;20129;-55
2023/06/02 10:03:30;;;;;;;7.93;2.33;;;15.60;92.30;;;;;;5034399;28;20053;-53
2023/06/02 10:05:58;;;;;;;11.60;2.50;;;15.70;92.20;;;;;;5033255;28;20426;-56
2023/06/02 10:08:25;;;;;;;8.70;2.42;;;15.90;92.00;;;;;;5034228;28;20144;-52
2023/06/02 10:10:53;;;;;;;11.40;2.53;;;15.90;92.00;;;;;;5034434;28;20054;-51
2023/06/02 10:13:20;;;;;;;11.55;3.10;;;15.90;92.10;;;;;;5035658;28;20492;-54
2023/06/02 10:15:47;;;;;;;10.32;2.47;;;15.90;92.60;;;;;;5035779;28;20049;-55
2023/06/02 10:18:14;;;;;;;9.65;2.58;;;15.90;92.20;;;;;;5035600;28;20092;-55
2023/06/02 10:20:41;;;;;;;8.27;2.28;;;16.20;92.30;;;;;;5035587;28;20092;-52
2023/06/02 10:23:08;;;;;;;10.73;2.30;;;16.30;91.40;;;;;;5035222;28;20041;-54
2023/06/02 10:25:35;;;;;;;8.63;2.60;;;16.30;91.40;;;;;;5035406;28;20049;-55
2023/06/02 10:28:02;;;;;;;10.82;2.30;;;16.20;91.40;;;;;;5035404;28;20040;-56
2023/06/02 10:30:28;;;;;;;8.95;2.15;;;15.90;91.30;;;;;;5035413;28;20046;-55
2023/06/02 10:32:56;;;;;;;8.40;2.53;;;15.90;91.80;;;;;;5035481;28;20045;-54
2023/06/02 10:35:23;;;;;;;7.80;2.72;;;15.80;91.70;;;;;;5035026;28;20523;-56
2023/06/02 10:37:51;;;;;;;12.05;2.50;;;15.80;91.10;;;;;;5033797;28;20120;-55
2023/06/02 10:40:21;;;;;;;10.50;2.67;;;15.70;91.60;;;;;;5034863;28;20049;-56
2023/06/02 10:42:47;;;;;;;10.02;2.58;;;15.60;91.80;;;;;;5035034;28;20041;-57
2023/06/02 10:45:14;;;;;;;7.43;2.75;;;15.60;91.70;;;;;;5035074;28;20048;-55
2023/06/02 10:47:41;;;;;;;9.80;3.03;;;15.60;91.70;;;;;;5034871;28;20113;-53
2023/06/02 10:50:09;;;;;;;8.95;2.63;;;15.70;91.90;;;;;;5034407;28;20045;-55
2023/06/02 10:52:41;;;;;;;13.10;3.80;;;15.70;91.80;;;;;;5034290;28;20117;-52
2023/06/02 10:55:07;;;;;;;12.02;3.10;;;15.80;91.70;;;;;;5034826;28;20046;-53
2023/06/02 10:57:35;;;;;;;10.90;3.35;;;15.70;91.60;;;;;;5035254;28;20428;-54
2023/06/02 11:00:02;;;;;;;11.95;3.17;;;15.60;91.70;;;;;;5034923;28;20103;-52
2023/06/02 11:02:29;;;;;;;10.07;3.10;;;15.60;91.90;;;;;;5034822;28;20045;-53
2023/06/02 11:04:56;;;;;;;10.38;2.45;;;15.60;91.90;;;;;;5034360;28;20033;-52
2023/06/02 11:07:26;;;;;;;9.40;2.78;;;15.60;92.10;;;;;;5033502;28;20087;-52
2023/06/02 11:09:53;;;;;;;11.40;2.85;;;15.60;91.50;;;;;;5033549;28;20045;-56
2023/06/02 11:12:21;;;;;;;13.50;2.67;;;15.60;91.90;;;;;;5034990;28;20384;-54
2023/06/02 11:14:47;;;;;;;9.40;2.65;;;15.60;91.80;;;;;;5034520;28;20041;-56
2023/06/02 11:17:14;;;;;;;9.88;3.20;;;15.50;91.60;;;;;;5034267;28;20048;-56
2023/06/02 11:19:41;;;;;;;11.80;3.13;;;15.50;91.40;;;;;;5034076;28;20041;-55
2023/06/02 11:22:08;;;;;;;10.85;2.80;;;15.60;91.70;;;;;;5034511;28;20037;-52
2023/06/02 11:24:35;;;;;;;14.18;3.30;;;15.70;91.50;;;;;;5033938;28;20049;-54
2023/06/02 11:27:03;;;;;;;11.65;3.10;;;15.70;91.60;;;;;;5034345;28;20529;-55
2023/06/02 11:29:31;;;;;;;15.38;3.17;;;15.70;91.80;;;;;;5033023;28;20401;-57
2023/06/02 11:31:58;;;;;;;16.02;3.30;;;15.80;91.80;;;;;;5034420;28;20045;-55
2023/06/02 11:34:25;;;;;;;9.82;2.90;;;15.90;91.80;;;;;;5034308;28;20041;-54
2023/06/02 11:36:54;;;;;;;11.32;3.20;;;15.90;91.60;;;;;;5033924;28;20045;-57
2023/06/02 11:39:20;;;;;;;9.73;2.90;;;15.90;91.60;;;;;;5034222;28;20041;-57
2023/06/02 11:41:47;;;;;;;17.17;3.70;;;16.00;91.60;;;;;;5034136;28;20045;-56
2023/06/02 11:44:14;;;;;;;10.98;3.13;;;16.10;91.60;;;;;;5034178;28;20131;-54
2023/06/02 11:46:41;;;;;;;9.80;2.83;;;16.10;91.90;;;;;;5033785;28;20044;-56
2023/06/02 11:49:08;;;;;;;15.38;3.60;;;16.10;92.00;;;;;;5033835;28;20092;-52
2023/06/02 11:51:36;;;;;;;11.35;3.15;;;16.10;91.80;;;;;;5033791;28;20476;-52
2023/06/02 11:54:03;;;;;;;15.13;4.07;;;16.10;91.70;;;;;;5034031;28;20527;-52
2023/06/02 11:56:30;;;;;;;12.65;3.20;;;16.20;91.90;;;;;;5032751;28;20053;-51
2023/06/02 11:58:57;;;;;;;8.48;2.70;;;16.20;91.20;;;;;;5033887;28;20472;-55
2023/06/02 12:01:25;;;;;;;10.10;3.05;;;16.20;91.60;;;;;;5033416;28;20120;-58
2023/06/02 12:03:51;;;;;;;12.18;2.95;;;16.10;91.10;;;;;;5033730;28;20064;-58
2023/06/02 12:06:18;;;;;;;17.23;3.20;;;16.20;90.80;;;;;;5032725;28;20104;-56
2023/06/02 12:08:46;;;;;;;12.77;3.35;;;16.30;91.10;;;;;;5033387;28;20045;-51
2023/06/02 12:11:13;;;;;;;13.30;3.28;;;16.40;91.10;;;;;;5032154;28;20116;-49
2023/06/02 12:13:40;;;;;;;12.00;3.35;;;16.40;91.40;;;;;;5033681;28;20041;-51
2023/06/02 12:16:07;;;;;;;13.13;3.63;;;16.40;91.40;;;;;;5033269;28;20050;-56
2023/06/02 12:18:35;;;;;;;12.10;3.28;;;16.40;91.30;;;;;;5033379;28;20476;-51
2023/06/02 12:21:01;;;;;;;15.75;3.40;;;16.40;91.20;;;;;;5033558;28;20128;-52
2023/06/02 12:23:29;;;;;;;9.35;3.30;;;16.40;91.50;;;;;;5033062;28;20072;-54
2023/06/02 12:25:59;;;;;;;12.65;3.30;;;16.50;91.50;;;;;;5033510;28;20404;-52
2023/06/02 12:28:25;;;;;;;13.75;3.30;;;16.70;91.40;;;;;;5031998;28;20049;-51
2023/06/02 12:30:52;;;;;;;9.40;2.70;;;16.70;91.00;;;;;;5033153;28;20038;-56
2023/06/02 12:33:19;;;;;;;12.18;3.25;;;16.90;91.20;;;;;;5033331;28;20042;-54
2023/06/02 12:35:48;;;;;;;9.05;3.03;;;16.90;90.80;;;;;;5033260;28;20485;-53
2023/06/02 12:38:15;;;;;;;11.15;3.47;;;16.80;90.10;;;;;;5033092;28;20041;-54
2023/06/02 12:40:42;;;;;;;10.88;3.30;;;16.70;90.70;;;;;;5031811;28;20037;-56
2023/06/02 12:43:09;;;;;;;12.30;2.83;;;16.70;90.70;;;;;;5033484;28;20053;-54